Darstellungsparameter: Aktuell verwendete Einstellungen:
Skalierung der Graphiken ... ?
xyx+y,   Skalierungsfaktor:      Skalierung: Modus: x, Faktor: 1
Darstellungszeitraum ... ?
Vom - - bis: - -   Zeitraum: 17.04.2009 - 19.04.2009
Min/Max/Avg-Anzeige ... ?
Zeige MMA aktuell
Zeige MMA Monat
Zeige MMA alles
Zeige --A aktuell
Zeige --A Monat
Zeige --A alles
Keine MMA-Anzeige
MMA:
Average (ber die Originaldaten)
MMA-Basis: 17.04.2009 - 19.04.2009
Quicknavigation für Darstellung... ?
Tage:      1T, 2T, 3T, 5T -1T -2T -3T -5T +1T +2T +3T +5T
Wochen: 1W, 2W, 3W -1W -2W -3W +1W +2W +3W
Monate: 1M, 3M, 6M -1M -3M -6M +1M +3M +6M
Jahre:    1J, 3J, 5J, 10J -1J -3J -5J -10J +1J +3J +5J +10J
Nutze für die Darstellung ... ?
Originaldaten oder Mittelwerte auf ...
Stundenbasis Tagesbasis Wochenbasis
Monatsbasis Jahresbasis      Datenbasis: Original-Daten
Darstellen als:
Statistik (Auto) Statistik J:M      Darstellung:
Zur Graphik,    zurück zur Übersicht aller Sensoren.
 
Tabellarische Datenbersicht: ?
 
Sensor: Nr:Datum:Temp:Abs-Feuchte:Windchill:Wind:
Aussen-T/F 1 17-04-2009 00:01:06 12.5 C 7.7 g/m*3 12.5 C 0 km/h
2 17-04-2009 00:13:06 12.4 C 7.87 g/m*3 12.4 C 0 km/h
3 17-04-2009 00:25:06 12.1 C 7.94 g/m*3 12.1 C 0 km/h
4 17-04-2009 00:37:06 11.7 C 8.26 g/m*3 11.7 C 0 km/h
5 17-04-2009 00:49:06 11.2 C 8.41 g/m*3 11.2 C 0 km/h
6 17-04-2009 01:01:06 11 C 8.61 g/m*3 11 C 0 km/h
7 17-04-2009 01:13:06 11 C 8.71 g/m*3 11 C 0 km/h
8 17-04-2009 01:25:06 10.8 C 8.8 g/m*3 10.8 C 0 km/h
9 17-04-2009 01:37:06 10.7 C 8.84 g/m*3 10.7 C 0 km/h
10 17-04-2009 01:49:06 10.6 C 8.78 g/m*3 10.6 C 0 km/h
11 17-04-2009 02:01:06 10.5 C 8.83 g/m*3 10.5 C 0 km/h
12 17-04-2009 02:13:06 10.5 C 8.83 g/m*3 10.5 C 0 km/h
13 17-04-2009 02:25:06 10.4 C 8.87 g/m*3 10.4 C 0 km/h
14 17-04-2009 02:37:06 10.4 C 8.87 g/m*3 10.4 C 0 km/h
15 17-04-2009 02:49:06 10.3 C 8.81 g/m*3 10.3 C 0 km/h
16 17-04-2009 03:01:06 10.3 C 8.91 g/m*3 10.3 C 0 km/h
17 17-04-2009 03:13:07 10.3 C 8.91 g/m*3 10.3 C 0 km/h
18 17-04-2009 03:25:07 10.2 C 8.85 g/m*3 10.2 C 0 km/h
19 17-04-2009 03:37:07 10.2 C 8.85 g/m*3 10.2 C 0 km/h
20 17-04-2009 03:49:07 10.2 C 8.85 g/m*3 10.2 C 0 km/h
21 17-04-2009 04:01:07 10.2 C 8.95 g/m*3 10.2 C 0 km/h
22 17-04-2009 04:13:07 10.2 C 8.95 g/m*3 10.2 C 0 km/h
23 17-04-2009 04:25:07 10.2 C 8.95 g/m*3 10.2 C 0 km/h
24 17-04-2009 04:37:07 10.1 C 8.89 g/m*3 10.1 C 0 km/h
25 17-04-2009 04:49:07 10.1 C 8.89 g/m*3 10.1 C 0 km/h
Sensor: Nr:Datum:Temp:Abs-Feuchte:Windchill:Wind:
Aussen-T/F 26 17-04-2009 05:01:07 10 C 8.83 g/m*3 10 C 0 km/h
27 17-04-2009 05:13:07 10 C 8.83 g/m*3 10 C 0 km/h
28 17-04-2009 05:25:07 10 C 8.83 g/m*3 10 C 0 km/h
29 17-04-2009 05:37:07 10 C 8.93 g/m*3 10 C 0 km/h
30 17-04-2009 05:49:07 9.9 C 8.87 g/m*3 9.9 C 0 km/h
31 17-04-2009 06:01:07 9.9 C 8.87 g/m*3 9.9 C 0 km/h
32 17-04-2009 06:13:07 9.9 C 8.87 g/m*3 9.9 C 0 km/h
33 17-04-2009 06:25:07 9.9 C 8.87 g/m*3 9.9 C 0 km/h
34 17-04-2009 06:37:07 9.8 C 8.81 g/m*3 9.8 C 0 km/h
35 17-04-2009 06:49:07 9.9 C 8.87 g/m*3 9.9 C 0 km/h
36 17-04-2009 07:01:04 9.8 C 8.81 g/m*3 9.8 C 0 km/h
37 17-04-2009 07:13:04 9.8 C 8.81 g/m*3 9.8 C 0 km/h
38 17-04-2009 07:25:04 9.8 C 8.81 g/m*3 9.8 C 0 km/h
39 17-04-2009 07:37:05 9.8 C 8.81 g/m*3 9.8 C 0 km/h
40 17-04-2009 07:49:04 9.8 C 8.81 g/m*3 9.8 C 0 km/h
41 17-04-2009 08:01:04 9.9 C 8.87 g/m*3 9.9 C 0 km/h
42 17-04-2009 08:13:04 9.9 C 8.87 g/m*3 9.9 C 0 km/h
43 17-04-2009 08:25:04 9.9 C 8.87 g/m*3 9.9 C 0 km/h
44 17-04-2009 08:37:04 10 C 8.93 g/m*3 10 C 0 km/h
45 17-04-2009 08:49:03 10 C 8.93 g/m*3 10 C 0 km/h
46 17-04-2009 09:01:04 10 C 8.93 g/m*3 10 C 0 km/h
47 17-04-2009 09:13:04 10 C 8.93 g/m*3 10 C 0 km/h
48 17-04-2009 09:25:03 10.1 C 8.89 g/m*3 10.1 C 0 km/h
49 17-04-2009 09:37:03 10.2 C 8.95 g/m*3 10.2 C 0 km/h
50 17-04-2009 09:49:03 10.2 C 8.95 g/m*3 10.2 C 0 km/h
Sensor: Nr:Datum:Temp:Abs-Feuchte:Windchill:Wind:
Aussen-T/F 51 17-04-2009 10:01:03 10.2 C 8.95 g/m*3 10.2 C 0 km/h
52 17-04-2009 10:13:03 10.3 C 9 g/m*3 10.3 C 0 km/h
53 17-04-2009 10:25:02 10.2 C 8.85 g/m*3 10.2 C 0 km/h
54 17-04-2009 10:37:02 10.2 C 8.85 g/m*3 10.2 C 0 km/h
55 17-04-2009 10:49:03 10.2 C 8.76 g/m*3 10.2 C 0 km/h
56 17-04-2009 11:01:02 10.2 C 8.76 g/m*3 10.2 C 0 km/h
57 17-04-2009 11:13:02 10.2 C 8.66 g/m*3 10.2 C 0 km/h
58 17-04-2009 11:25:02 10.2 C 8.56 g/m*3 10.2 C 0 km/h
59 17-04-2009 11:37:02 10.2 C 8.56 g/m*3 10.2 C 0 km/h
60 17-04-2009 11:49:02 10.2 C 8.47 g/m*3 10.2 C 0 km/h
61 17-04-2009 12:01:01 10.1 C 8.42 g/m*3 10.1 C 0 km/h
62 17-04-2009 12:13:01 10.2 C 8.47 g/m*3 10.2 C 0 km/h
63 17-04-2009 12:25:02 10.1 C 8.32 g/m*3 10.1 C 0 km/h
64 17-04-2009 12:37:01 10.1 C 8.32 g/m*3 10.1 C 0 km/h
65 17-04-2009 12:49:01 10 C 8.27 g/m*3 10 C 0 km/h
66 17-04-2009 13:01:01 10 C 8.36 g/m*3 10 C 0 km/h
67 17-04-2009 13:13:01 10 C 8.36 g/m*3 10 C 0 km/h
68 17-04-2009 13:25:01 10.3 C 8.52 g/m*3 10.3 C 0 km/h
69 17-04-2009 13:37:01 10.3 C 8.52 g/m*3 10.3 C 0 km/h
70 17-04-2009 13:49:01 10.4 C 8.58 g/m*3 10.4 C 0 km/h
71 17-04-2009 14:01:01 10.4 C 8.58 g/m*3 10.4 C 0 km/h
72 17-04-2009 14:13:01 10.5 C 8.63 g/m*3 10.5 C 0 km/h
73 17-04-2009 14:25:00 10.7 C 8.74 g/m*3 10.7 C 0 km/h
74 17-04-2009 14:37:00 10.5 C 8.63 g/m*3 10.5 C 0 km/h
75 17-04-2009 14:49:00 10.6 C 8.69 g/m*3 10.6 C 0 km/h
Sensor: Nr:Datum:Temp:Abs-Feuchte:Windchill:Wind:
Aussen-T/F 76 17-04-2009 15:01:00 10.5 C 8.63 g/m*3 10.5 C 0 km/h
77 17-04-2009 15:13:00 10.4 C 8.58 g/m*3 10.4 C 0 km/h
78 17-04-2009 15:25:59 10.2 C 8.56 g/m*3 10.2 C 0 km/h
79 17-04-2009 15:37:00 10 C 8.46 g/m*3 10 C 0 km/h
80 17-04-2009 15:49:00 9.9 C 8.5 g/m*3 9.9 C 0 km/h
81 17-04-2009 16:01:59 9.9 C 8.5 g/m*3 9.9 C 0 km/h
82 17-04-2009 16:12:59 9.8 C 8.54 g/m*3 9.8 C 0 km/h
83 17-04-2009 16:24:59 9.7 C 8.48 g/m*3 9.7 C 0 km/h
84 17-04-2009 16:37:59 9.6 C 8.43 g/m*3 9.6 C 0 km/h
85 17-04-2009 16:49:59 9.6 C 8.43 g/m*3 9.6 C 0 km/h
86 17-04-2009 17:01:58 9.6 C 8.52 g/m*3 9.6 C 0 km/h
87 17-04-2009 17:13:59 9.6 C 8.52 g/m*3 9.6 C 0 km/h
88 17-04-2009 17:25:59 9.5 C 8.47 g/m*3 9.5 C 0 km/h
89 17-04-2009 17:37:58 9.5 C 8.47 g/m*3 9.5 C 0 km/h
90 17-04-2009 17:49:58 9.5 C 8.47 g/m*3 9.5 C 0 km/h
91 17-04-2009 18:01:59 9.5 C 8.47 g/m*3 9.5 C 0 km/h
92 17-04-2009 18:13:58 9.6 C 8.61 g/m*3 9.6 C 0 km/h
93 17-04-2009 18:25:58 9.5 C 8.56 g/m*3 9.5 C 0 km/h
94 17-04-2009 18:37:58 9.5 C 8.56 g/m*3 9.5 C 0 km/h
95 17-04-2009 18:49:58 9.5 C 8.56 g/m*3 9.5 C 0 km/h
96 17-04-2009 19:01:58 9.5 C 8.56 g/m*3 9.5 C 0 km/h
97 17-04-2009 19:13:57 9.6 C 8.61 g/m*3 9.6 C 0 km/h
98 17-04-2009 19:25:57 9.5 C 8.56 g/m*3 9.5 C 0 km/h
99 17-04-2009 19:37:57 9.5 C 8.56 g/m*3 9.5 C 0 km/h
100 17-04-2009 19:49:57 9.5 C 8.56 g/m*3 9.5 C 0 km/h
Sensor: Nr:Datum:Temp:Abs-Feuchte:Windchill:Wind:
Aussen-T/F 101 17-04-2009 20:01:57 9.6 C 8.7 g/m*3 9.6 C 0 km/h
102 17-04-2009 20:13:57 9.6 C 8.7 g/m*3 9.6 C 0 km/h
103 17-04-2009 20:25:57 9.7 C 8.76 g/m*3 9.7 C 0 km/h
104 17-04-2009 20:37:57 9.7 C 8.76 g/m*3 9.7 C 0 km/h
105 17-04-2009 20:49:57 9.8 C 8.81 g/m*3 9.8 C 0 km/h
106 17-04-2009 21:01:57 9.8 C 8.81 g/m*3 9.8 C 0 km/h
107 17-04-2009 21:13:56 9.8 C 8.81 g/m*3 9.8 C 0 km/h
108 17-04-2009 21:25:56 9.8 C 8.81 g/m*3 9.8 C 0 km/h
109 17-04-2009 21:37:56 9.9 C 8.87 g/m*3 9.9 C 0 km/h
110 17-04-2009 21:49:56 9.9 C 8.87 g/m*3 9.9 C 0 km/h
111 17-04-2009 22:01:56 9.9 C 8.87 g/m*3 9.9 C 0 km/h
112 17-04-2009 22:13:56 9.9 C 8.87 g/m*3 9.9 C 0 km/h
113 17-04-2009 22:25:56 9.9 C 8.87 g/m*3 9.9 C 0 km/h
114 17-04-2009 22:38:55 9.8 C 8.81 g/m*3 9.8 C 0 km/h
115 17-04-2009 22:50:55 9.8 C 8.81 g/m*3 9.8 C 0 km/h
116 17-04-2009 23:02:55 9.7 C 8.76 g/m*3 9.7 C 0 km/h
117 17-04-2009 23:14:55 9.6 C 8.7 g/m*3 9.6 C 0 km/h
118 17-04-2009 23:26:55 9.5 C 8.65 g/m*3 9.5 C 0 km/h
119 17-04-2009 23:38:56 9.4 C 8.59 g/m*3 9.4 C 0 km/h
120 17-04-2009 23:50:56 9.4 C 8.59 g/m*3 9.4 C 0 km/h
121 18-04-2009 00:02:56 9.4 C 8.59 g/m*3 9.4 C 0 km/h
122 18-04-2009 00:14:56 9.4 C 8.59 g/m*3 9.4 C 0 km/h
123 18-04-2009 00:26:56 9.4 C 8.59 g/m*3 9.4 C 0 km/h
124 18-04-2009 00:38:56 9.4 C 8.59 g/m*3 9.4 C 0 km/h
125 18-04-2009 00:50:56 9.4 C 8.59 g/m*3 9.4 C 0 km/h
Sensor: Nr:Datum:Temp:Abs-Feuchte:Windchill:Wind:
Aussen-T/F 126 18-04-2009 01:02:56 9.4 C 8.59 g/m*3 9.4 C 0 km/h
127 18-04-2009 01:14:56 9.4 C 8.59 g/m*3 9.4 C 0 km/h
128 18-04-2009 01:26:56 9.4 C 8.59 g/m*3 9.4 C 0 km/h
129 18-04-2009 01:38:56 9.4 C 8.59 g/m*3 9.4 C 0 km/h
130 18-04-2009 01:50:56 9.4 C 8.59 g/m*3 9.4 C 0 km/h
131 18-04-2009 02:02:56 9.4 C 8.59 g/m*3 9.4 C 0 km/h
132 18-04-2009 02:14:56 9.4 C 8.59 g/m*3 9.4 C 0 km/h
133 18-04-2009 02:26:56 9.5 C 8.65 g/m*3 9.5 C 0 km/h
134 18-04-2009 02:38:56 9.5 C 8.65 g/m*3 9.5 C 0 km/h
135 18-04-2009 02:50:56 9.5 C 8.65 g/m*3 9.5 C 0 km/h
136 18-04-2009 03:02:56 9.5 C 8.65 g/m*3 9.5 C 0 km/h
137 18-04-2009 03:14:56 9.5 C 8.65 g/m*3 9.5 C 0 km/h
138 18-04-2009 03:26:56 9.4 C 8.59 g/m*3 9.4 C 0 km/h
139 18-04-2009 03:38:56 9.5 C 8.65 g/m*3 9.5 C 0 km/h
140 18-04-2009 03:50:57 9.4 C 8.59 g/m*3 9.4 C 0 km/h
141 18-04-2009 04:02:57 9.5 C 8.65 g/m*3 9.5 C 0 km/h
142 18-04-2009 04:14:57 9.6 C 8.7 g/m*3 9.6 C 0 km/h
143 18-04-2009 04:26:57 9.5 C 8.65 g/m*3 9.5 C 0 km/h
144 18-04-2009 04:38:57 9.6 C 8.7 g/m*3 9.6 C 0 km/h
145 18-04-2009 04:50:57 9.5 C 8.65 g/m*3 9.5 C 0 km/h
146 18-04-2009 05:02:57 9.5 C 8.65 g/m*3 9.5 C 0 km/h
147 18-04-2009 05:14:57 9.5 C 8.65 g/m*3 9.5 C 0 km/h
148 18-04-2009 05:26:57 9.5 C 8.65 g/m*3 9.5 C 0 km/h
149 18-04-2009 05:38:57 9.4 C 8.59 g/m*3 9.4 C 0 km/h
150 18-04-2009 05:50:57 9.4 C 8.59 g/m*3 9.4 C 0 km/h
Sensor: Nr:Datum:Temp:Abs-Feuchte:Windchill:Wind:
Aussen-T/F 151 18-04-2009 06:02:57 9.3 C 8.54 g/m*3 9.3 C 0 km/h
152 18-04-2009 06:14:57 9.4 C 8.59 g/m*3 9.4 C 0 km/h
153 18-04-2009 06:26:57 9.4 C 8.59 g/m*3 9.4 C 0 km/h
154 18-04-2009 06:38:57 9.4 C 8.59 g/m*3 9.4 C 0 km/h
155 18-04-2009 06:50:57 9.5 C 8.65 g/m*3 9.5 C 0 km/h
156 18-04-2009 07:02:57 9.5 C 8.65 g/m*3 9.5 C 0 km/h
157 18-04-2009 07:14:57 9.5 C 8.65 g/m*3 9.5 C 0 km/h
158 18-04-2009 07:26:57 9.6 C 8.7 g/m*3 9.6 C 0 km/h
159 18-04-2009 07:38:57 9.6 C 8.7 g/m*3 9.6 C 0 km/h
160 18-04-2009 07:50:58 9.6 C 8.7 g/m*3 9.6 C 0 km/h
161 18-04-2009 08:02:58 9.7 C 8.76 g/m*3 9.7 C 0 km/h
162 18-04-2009 08:14:58 9.7 C 8.76 g/m*3 9.7 C 0 km/h
163 18-04-2009 08:26:58 9.8 C 8.81 g/m*3 9.8 C 0 km/h
164 18-04-2009 08:38:56 9.9 C 8.87 g/m*3 9.9 C 0 km/h
165 18-04-2009 08:50:55 10 C 8.93 g/m*3 10 C 0 km/h
166 18-04-2009 09:02:55 10.1 C 8.98 g/m*3 10.1 C 0 km/h
167 18-04-2009 09:14:54 10 C 8.93 g/m*3 10 C 0 km/h
168 18-04-2009 09:26:54 10.1 C 8.98 g/m*3 10.1 C 0 km/h
169 18-04-2009 09:38:55 10 C 8.93 g/m*3 10 C 0 km/h
170 18-04-2009 09:50:54 9.8 C 8.81 g/m*3 9.8 C 0 km/h
171 18-04-2009 10:02:54 9.8 C 8.81 g/m*3 9.8 C 0 km/h
172 18-04-2009 10:14:54 9.7 C 8.76 g/m*3 9.7 C 0 km/h
173 18-04-2009 10:26:54 9.7 C 8.76 g/m*3 9.7 C 0 km/h
174 18-04-2009 10:38:54 9.8 C 8.72 g/m*3 9.8 C 0 km/h
175 18-04-2009 10:50:53 9.8 C 8.72 g/m*3 9.8 C 0 km/h
Sensor: Nr:Datum:Temp:Abs-Feuchte:Windchill:Wind:
Aussen-T/F 176 18-04-2009 11:02:54 9.6 C 8.61 g/m*3 9.6 C 0 km/h
177 18-04-2009 11:14:54 9.5 C 8.56 g/m*3 9.5 C 0 km/h
178 18-04-2009 11:26:54 9.8 C 8.72 g/m*3 9.8 C 0 km/h
179 18-04-2009 11:38:53 9.6 C 8.52 g/m*3 9.6 C 0 km/h
180 18-04-2009 11:50:54 9.6 C 8.52 g/m*3 9.6 C 0 km/h
181 18-04-2009 12:02:53 9.7 C 8.48 g/m*3 9.7 C 0 km/h
182 18-04-2009 12:14:53 9.6 C 8.43 g/m*3 9.6 C 0 km/h
183 18-04-2009 12:26:54 9.7 C 8.48 g/m*3 9.7 C 0 km/h
184 18-04-2009 12:38:52 9.8 C 8.63 g/m*3 9.8 C 0 km/h
185 18-04-2009 12:50:53 9.7 C 8.48 g/m*3 9.7 C 0 km/h
186 18-04-2009 13:02:52 9.8 C 8.63 g/m*3 9.8 C 0 km/h
187 18-04-2009 13:14:52 9.8 C 8.63 g/m*3 9.8 C 0 km/h
188 18-04-2009 13:26:52 9.6 C 8.52 g/m*3 9.6 C 0 km/h
189 18-04-2009 13:38:53 9.5 C 8.37 g/m*3 9.5 C 0 km/h
190 18-04-2009 13:50:52 9.6 C 8.52 g/m*3 9.6 C 0 km/h
191 18-04-2009 14:02:52 9.5 C 8.47 g/m*3 9.5 C 0 km/h
192 18-04-2009 14:14:52 9.4 C 8.41 g/m*3 9.4 C 0 km/h
193 18-04-2009 14:26:52 9.5 C 8.37 g/m*3 9.5 C 0 km/h
194 18-04-2009 14:38:52 9.5 C 8.19 g/m*3 9.5 C 0 km/h
195 18-04-2009 14:50:51 9.4 C 8.05 g/m*3 9.4 C 0 km/h
196 18-04-2009 15:02:52 9.5 C 8.1 g/m*3 9.5 C 0 km/h
197 18-04-2009 15:14:51 9.7 C 8.3 g/m*3 9.7 C 0 km/h
198 18-04-2009 15:26:51 9.8 C 8.35 g/m*3 9.8 C 0 km/h
199 18-04-2009 15:38:51 9.8 C 8.44 g/m*3 9.8 C 0 km/h
200 18-04-2009 15:50:51 9.8 C 8.44 g/m*3 9.8 C 0 km/h
Sensor: Nr:Datum:Temp:Abs-Feuchte:Windchill:Wind:
Aussen-T/F 201 18-04-2009 16:02:51 9.8 C 8.44 g/m*3 9.8 C 0 km/h
202 18-04-2009 16:14:51 10.1 C 8.51 g/m*3 10.1 C 0 km/h
203 18-04-2009 16:26:51 10.7 C 8.94 g/m*3 10.7 C 0 km/h
204 18-04-2009 16:38:50 11.1 C 9.07 g/m*3 11.1 C 0 km/h
205 18-04-2009 16:50:51 11.3 C 9.08 g/m*3 11.3 C 0 km/h
206 18-04-2009 17:02:50 11.4 C 9.03 g/m*3 11.4 C 0 km/h
207 18-04-2009 17:14:50 11.5 C 8.99 g/m*3 11.5 C 0 km/h
208 18-04-2009 17:26:50 11.6 C 9.04 g/m*3 11.6 C 0 km/h
209 18-04-2009 17:38:50 11.7 C 8.89 g/m*3 11.7 C 0 km/h
210 18-04-2009 17:50:50 11.5 C 8.57 g/m*3 11.5 C 0 km/h
211 18-04-2009 18:02:49 11.6 C 8.63 g/m*3 11.6 C 0 km/h
212 18-04-2009 18:14:50 11.3 C 8.47 g/m*3 11.3 C 0 km/h
213 18-04-2009 18:26:50 11.2 C 8.51 g/m*3 11.2 C 0 km/h
214 18-04-2009 18:38:50 11.1 C 8.56 g/m*3 11.1 C 0 km/h
215 18-04-2009 18:50:49 11.1 C 8.56 g/m*3 11.1 C 0 km/h
216 18-04-2009 19:02:50 11 C 8.61 g/m*3 11 C 0 km/h
217 18-04-2009 19:14:49 10.8 C 8.6 g/m*3 10.8 C 0 km/h
218 18-04-2009 19:26:49 10.6 C 8.49 g/m*3 10.6 C 0 km/h
219 18-04-2009 19:38:49 10.4 C 8.38 g/m*3 10.4 C 0 km/h
220 18-04-2009 19:50:49 10.2 C 8.28 g/m*3 10.2 C 0 km/h
221 18-04-2009 20:02:49 10.1 C 8.23 g/m*3 10.1 C 0 km/h
222 18-04-2009 20:14:48 10.1 C 8.13 g/m*3 10.1 C 0 km/h
223 18-04-2009 20:26:48 10.1 C 8.04 g/m*3 10.1 C 0 km/h
224 18-04-2009 20:38:48 9.9 C 8.12 g/m*3 9.9 C 0 km/h
225 18-04-2009 20:50:48 9.9 C 8.12 g/m*3 9.9 C 0 km/h
Sensor: Nr:Datum:Temp:Abs-Feuchte:Windchill:Wind:
Aussen-T/F 226 18-04-2009 21:02:48 9.8 C 8.07 g/m*3 9.8 C 0 km/h
227 18-04-2009 21:14:48 9.8 C 7.98 g/m*3 9.8 C 0 km/h
228 18-04-2009 21:26:48 9.8 C 7.98 g/m*3 9.8 C 0 km/h
229 18-04-2009 21:38:47 9.7 C 7.93 g/m*3 9.7 C 0 km/h
230 18-04-2009 21:50:48 9.8 C 8.07 g/m*3 9.8 C 0 km/h
231 18-04-2009 22:02:47 9.7 C 8.02 g/m*3 9.7 C 0 km/h
232 18-04-2009 22:14:47 9.6 C 8.06 g/m*3 9.6 C 0 km/h
233 18-04-2009 22:26:47 9.6 C 8.06 g/m*3 9.6 C 0 km/h
234 18-04-2009 22:38:48 9.6 C 8.06 g/m*3 9.6 C 0 km/h
235 18-04-2009 22:50:47 9.6 C 8.15 g/m*3 9.6 C 0 km/h
236 18-04-2009 23:03:49 9.6 C 8.15 g/m*3 9.6 C 0 km/h
237 18-04-2009 23:15:49 9.5 C 8.1 g/m*3 9.5 C 0 km/h
238 18-04-2009 23:27:49 9.3 C 8 g/m*3 9.3 C 0 km/h
239 18-04-2009 23:39:50 9.1 C 7.9 g/m*3 9.1 C 0 km/h
240 18-04-2009 23:51:50 9.1 C 7.99 g/m*3 9.1 C 0 km/h
241 19-04-2009 00:03:50 9.2 C 8.13 g/m*3 9.2 C 0 km/h
242 19-04-2009 00:15:50 9.4 C 8.23 g/m*3 9.4 C 0 km/h
243 19-04-2009 00:27:50 9.4 C 8.23 g/m*3 9.4 C 0 km/h
244 19-04-2009 00:39:50 9.5 C 8.19 g/m*3 9.5 C 0 km/h
245 19-04-2009 00:51:50 9.5 C 8.19 g/m*3 9.5 C 0 km/h
246 19-04-2009 01:03:50 9.6 C 8.15 g/m*3 9.6 C 0 km/h
247 19-04-2009 01:15:50 9.6 C 8.15 g/m*3 9.6 C 0 km/h
248 19-04-2009 01:27:50 9.6 C 8.15 g/m*3 9.6 C 0 km/h
249 19-04-2009 01:39:50 9.6 C 8.15 g/m*3 9.6 C 0 km/h
250 19-04-2009 01:51:50 9.6 C 8.15 g/m*3 9.6 C 0 km/h
Sensor: Nr:Datum:Temp:Abs-Feuchte:Windchill:Wind:
Aussen-T/F 251 19-04-2009 02:03:50 9.6 C 8.15 g/m*3 9.6 C 0 km/h
252 19-04-2009 02:15:50 9.7 C 8.2 g/m*3 9.7 C 0 km/h
253 19-04-2009 02:27:50 9.8 C 8.26 g/m*3 9.8 C 0 km/h
254 19-04-2009 02:39:50 9.8 C 8.26 g/m*3 9.8 C 0 km/h
255 19-04-2009 02:51:50 9.9 C 8.22 g/m*3 9.9 C 0 km/h
256 19-04-2009 03:03:50 9.9 C 8.22 g/m*3 9.9 C 0 km/h
257 19-04-2009 03:15:50 9.8 C 8.16 g/m*3 9.8 C 0 km/h
258 19-04-2009 03:27:51 9.8 C 8.16 g/m*3 9.8 C 0 km/h
259 19-04-2009 03:39:51 9.8 C 8.16 g/m*3 9.8 C 0 km/h
260 19-04-2009 03:51:51 9.8 C 8.16 g/m*3 9.8 C 0 km/h
261 19-04-2009 04:03:51 9.7 C 8.11 g/m*3 9.7 C 0 km/h
262 19-04-2009 04:15:51 9.4 C 7.96 g/m*3 9.4 C 0 km/h
263 19-04-2009 04:27:51 9.4 C 8.05 g/m*3 9.4 C 0 km/h
264 19-04-2009 04:39:51 9.3 C 8 g/m*3 9.3 C 0 km/h
265 19-04-2009 04:51:51 9.3 C 8 g/m*3 9.3 C 0 km/h
266 19-04-2009 05:03:51 9.3 C 8.09 g/m*3 9.3 C 0 km/h
267 19-04-2009 05:15:51 9.3 C 8.09 g/m*3 9.3 C 0 km/h
268 19-04-2009 05:27:51 9.4 C 8.05 g/m*3 9.4 C 0 km/h
269 19-04-2009 05:39:51 9.4 C 8.05 g/m*3 9.4 C 0 km/h
270 19-04-2009 05:51:51 9.3 C 8 g/m*3 9.3 C 0 km/h
271 19-04-2009 06:03:51 9.3 C 7.91 g/m*3 9.3 C 0 km/h
272 19-04-2009 06:15:51 9.3 C 7.91 g/m*3 9.3 C 0 km/h
273 19-04-2009 06:27:51 9.3 C 7.91 g/m*3 9.3 C 0 km/h
274 19-04-2009 06:39:51 9.3 C 7.91 g/m*3 9.3 C 0 km/h
275 19-04-2009 06:51:51 9.3 C 7.91 g/m*3 9.3 C 0 km/h
Sensor: Nr:Datum:Temp:Abs-Feuchte:Windchill:Wind:
Aussen-T/F 276 19-04-2009 07:03:51 9.3 C 7.91 g/m*3 9.3 C 0 km/h
277 19-04-2009 07:15:52 9.5 C 8.01 g/m*3 9.5 C 0 km/h
278 19-04-2009 07:27:52 9.6 C 8.06 g/m*3 9.6 C 0 km/h
279 19-04-2009 07:39:52 9.8 C 8.16 g/m*3 9.8 C 0 km/h
280 19-04-2009 07:51:52 10 C 8.08 g/m*3 10 C 0 km/h
281 19-04-2009 08:03:52 10.1 C 8.13 g/m*3 10.1 C 0 km/h
282 19-04-2009 08:15:52 9.8 C 7.98 g/m*3 9.8 C 0 km/h
283 19-04-2009 08:27:52 9.7 C 7.93 g/m*3 9.7 C 0 km/h
284 19-04-2009 08:39:48 9.8 C 7.98 g/m*3 9.8 C 0 km/h
285 19-04-2009 08:51:47 10.5 C 8.15 g/m*3 10.5 C 0 km/h
286 19-04-2009 09:03:48 11 C 8.01 g/m*3 11 C 0 km/h
287 19-04-2009 09:15:47 11.1 C 7.66 g/m*3 11.1 C 0 km/h
288 19-04-2009 09:27:47 11.2 C 7.5 g/m*3 11.2 C 0 km/h
289 19-04-2009 09:39:47 11.6 C 7.59 g/m*3 11.6 C 0 km/h
290 19-04-2009 09:51:47 11.9 C 7.31 g/m*3 11.9 C 0 km/h
291 19-04-2009 10:03:47 12.4 C 7.21 g/m*3 12.4 C 0 km/h
292 19-04-2009 10:15:47 12.9 C 7.21 g/m*3 12.9 C 0 km/h
293 19-04-2009 10:27:47 12.7 C 7.24 g/m*3 12.7 C 0 km/h
294 19-04-2009 10:39:46 13 C 6.92 g/m*3 13 C 0 km/h
295 19-04-2009 10:51:47 13.6 C 7.18 g/m*3 13.6 C 0 km/h
296 19-04-2009 11:03:46 14.3 C 6.88 g/m*3 14.3 C 0 km/h
297 19-04-2009 11:15:46 14.6 C 6.51 g/m*3 14.6 C 0 km/h
298 19-04-2009 11:27:46 15.1 C 6.71 g/m*3 15.1 C 0 km/h
299 19-04-2009 11:39:46 15.1 C 6.32 g/m*3 15.1 C 0 km/h
300 19-04-2009 11:51:46 15.5 C 6.48 g/m*3 15.5 C 0 km/h
Sensor: Nr:Datum:Temp:Abs-Feuchte:Windchill:Wind:
Aussen-T/F 301 19-04-2009 12:03:45 16 C 6.54 g/m*3 16 C 0 km/h
302 19-04-2009 12:15:46 16 C 6.27 g/m*3 16 C 0 km/h
303 19-04-2009 12:27:46 17.1 C 6.55 g/m*3 17.1 C 0 km/h
304 19-04-2009 12:39:46 17 C 6.08 g/m*3 17 C 0 km/h
305 19-04-2009 12:51:45 16 C 6.54 g/m*3 16 C 0 km/h
306 19-04-2009 13:03:46 15.9 C 6.23 g/m*3 15.9 C 0 km/h
307 19-04-2009 13:15:45 16 C 6.13 g/m*3 16 C 0 km/h
308 19-04-2009 13:27:45 16.9 C 6.76 g/m*3 16.9 C 0 km/h
309 19-04-2009 13:39:45 16.9 C 6.76 g/m*3 16.9 C 0 km/h
310 19-04-2009 13:51:45 17.1 C 6.26 g/m*3 17.1 C 0 km/h
311 19-04-2009 14:03:45 17.5 C 6.41 g/m*3 17.5 C 0 km/h
312 19-04-2009 14:15:44 18.7 C 6.24 g/m*3 18.7 C 0 km/h
313 19-04-2009 14:27:44 19.1 C 5.74 g/m*3 19.1 C 0 km/h
314 19-04-2009 14:39:44 19.9 C 6.01 g/m*3 19.9 C 0 km/h
315 19-04-2009 14:51:44 21 C 5.31 g/m*3 21 C 0 km/h
316 19-04-2009 15:03:44 20.9 C 5.46 g/m*3 20.9 C 0 km/h
317 19-04-2009 15:15:43 21.1 C 5.53 g/m*3 21.1 C 0 km/h
318 19-04-2009 15:27:43 22.1 C 5.08 g/m*3 22.1 C 0 km/h
319 19-04-2009 15:39:44 21.2 C 5.74 g/m*3 21.2 C 0 km/h
320 19-04-2009 15:51:43 22.3 C 5.13 g/m*3 22.3 C 0 km/h
321 19-04-2009 16:03:43 23.3 C 4.81 g/m*3 23.3 C 0 km/h
322 19-04-2009 16:15:44 23.9 C 4.76 g/m*3 23.9 C 0 km/h
323 19-04-2009 16:27:44 25.2 C 4.89 g/m*3 25.2 C 0 km/h
324 19-04-2009 16:39:02 24.6 C 4.73 g/m*3 24.6 C 0 km/h
325 19-04-2009 16:51:01 25.4 C 4.71 g/m*3 25.4 C 0 km/h
Sensor: Nr:Datum:Temp:Abs-Feuchte:Windchill:Wind:
Aussen-T/F 326 19-04-2009 17:03:01 25.3 C 4.68 g/m*3 25.3 C 0 km/h
327 19-04-2009 17:15:01 25.4 C 4.71 g/m*3 25.4 C 0 km/h
328 19-04-2009 17:27:01 25.7 C 4.79 g/m*3 25.7 C 0 km/h
329 19-04-2009 17:39:01 25.6 C 4.76 g/m*3 25.6 C 0 km/h
330 19-04-2009 17:51:01 25.7 C 4.79 g/m*3 25.7 C 0 km/h
331 19-04-2009 18:03:01 25.6 C 4.76 g/m*3 25.6 C 0 km/h
332 19-04-2009 18:15:00 25.2 C 4.66 g/m*3 25.2 C 0 km/h
333 19-04-2009 18:27:00 25.1 C 4.63 g/m*3 25.1 C 0 km/h
334 19-04-2009 18:39:00 25.2 C 4.66 g/m*3 25.2 C 0 km/h
335 19-04-2009 18:51:00 24.9 C 4.58 g/m*3 24.9 C 0 km/h
336 19-04-2009 19:03:00 24.5 C 4.48 g/m*3 24.5 C 0 km/h
337 19-04-2009 19:15:59 24.2 C 4.4 g/m*3 24.2 C 0 km/h
338 19-04-2009 19:27:59 23.7 C 4.71 g/m*3 23.7 C 0 km/h
339 19-04-2009 19:39:00 23 C 4.93 g/m*3 23 C 0 km/h
340 19-04-2009 19:51:59 22.2 C 5.3 g/m*3 22.2 C 0 km/h
341 19-04-2009 20:03:59 21 C 5.68 g/m*3 21 C 0 km/h
342 19-04-2009 20:14:59 19.3 C 5.64 g/m*3 19.3 C 0 km/h
343 19-04-2009 20:26:59 18.3 C 5.63 g/m*3 18.3 C 0 km/h
344 19-04-2009 20:39:59 17.2 C 5.86 g/m*3 17.2 C 0 km/h
345 19-04-2009 20:51:59 16.6 C 5.79 g/m*3 16.6 C 0 km/h
346 19-04-2009 21:03:59 16.2 C 6.07 g/m*3 16.2 C 0 km/h
347 19-04-2009 21:15:58 15.8 C 6.33 g/m*3 15.8 C 0 km/h
348 19-04-2009 21:27:58 15.4 C 6.44 g/m*3 15.4 C 0 km/h
349 19-04-2009 21:39:59 15.2 C 6.62 g/m*3 15.2 C 0 km/h
350 19-04-2009 21:51:58 14.9 C 6.63 g/m*3 14.9 C 0 km/h
Sensor: Nr:Datum:Temp:Abs-Feuchte:Windchill:Wind:
Aussen-T/F 351 19-04-2009 22:03:58 14.6 C 6.63 g/m*3 14.6 C 0 km/h
352 19-04-2009 22:15:57 14.3 C 6.63 g/m*3 14.3 C 0 km/h
353 19-04-2009 22:27:57 14.1 C 6.67 g/m*3 14.1 C 0 km/h
354 19-04-2009 22:40:59 13.8 C 6.79 g/m*3 13.8 C 0 km/h
355 19-04-2009 22:52:59 13.7 C 6.87 g/m*3 13.7 C 0 km/h
356 19-04-2009 23:04:59 13.4 C 6.86 g/m*3 13.4 C 0 km/h
357 19-04-2009 23:17:00 13.1 C 6.96 g/m*3 13.1 C 0 km/h
358 19-04-2009 23:29:00 12.9 C 7.1 g/m*3 12.9 C 0 km/h
359 19-04-2009 23:41:00 12.7 C 7.12 g/m*3 12.7 C 0 km/h
360 19-04-2009 23:53:00 12.6 C 7.19 g/m*3 12.6 C 0 km/h

Legende:
   Min
   Max


Maximal/Minimal-Werte vom 17.04.2009 - 19.04.2009

Sensor Min Max Avg
Temp
(Aussen-T/F)
9.1 °C
18-04-2009  23:39:50
25.7 °C
19-04-2009  17:27:01
11.63 °C
Abs-Feuchte
(Aussen-T/F)
4.4 g/m*3
19-04-2009  19:15:59
9.08 g/m*3
18-04-2009  16:50:51
7.98 g/m*3
Windchill
(Aussen-T/F)
9.1 C
18-04-2009  23:39:50
25.7 C
19-04-2009  17:27:01
11.59 C

Die Daten stammen von einer Davis Vantage Pro 2 Wetter-Station und werden unter Linux mit der Software wview2wettercgi und aufbereitet. Alle Angaben erfolgen ohne Gewähr für ihre Vollständigkeit oder Richtigkeit.
Kontakt: Rainer Krienke krienke@uni-koblenz.de . Meine Webseiten an der Uni Koblenz oder privat.
Version: $Revision: 0.78 $